sensor_id;sensor_type;location;lat;lon;timestamp;P1;durP1;ratioP1;P2;durP2;ratioP2
54845;SDS011;53889;50.084;8.646;2022-09-13T00:01:06;9.18;;;6.43;;
54845;SDS011;53889;50.084;8.646;2022-09-13T00:03:35;8.82;;;6.10;;
54845;SDS011;53889;50.084;8.646;2022-09-13T00:06:11;7.78;;;6.10;;
54845;SDS011;53889;50.084;8.646;2022-09-13T00:08:40;9.95;;;6.78;;
54845;SDS011;53889;50.084;8.646;2022-09-13T00:11:11;10.85;;;6.45;;
54845;SDS011;53889;50.084;8.646;2022-09-13T00:13:41;8.38;;;6.10;;
54845;SDS011;53889;50.084;8.646;2022-09-13T00:16:09;9.65;;;6.22;;
54845;SDS011;53889;50.084;8.646;2022-09-13T00:18:38;11.75;;;6.63;;
54845;SDS011;53889;50.084;8.646;2022-09-13T00:21:06;7.63;;;6.13;;
54845;SDS011;53889;50.084;8.646;2022-09-13T00:23:34;8.80;;;6.32;;
54845;SDS011;53889;50.084;8.646;2022-09-13T00:26:01;8.77;;;6.15;;
54845;SDS011;53889;50.084;8.646;2022-09-13T00:28:32;9.63;;;6.20;;
54845;SDS011;53889;50.084;8.646;2022-09-13T00:30:59;9.98;;;6.40;;
54845;SDS011;53889;50.084;8.646;2022-09-13T00:33:26;9.75;;;5.88;;
54845;SDS011;53889;50.084;8.646;2022-09-13T00:35:54;7.90;;;6.32;;
54845;SDS011;53889;50.084;8.646;2022-09-13T00:38:21;8.63;;;6.40;;
54845;SDS011;53889;50.084;8.646;2022-09-13T00:40:47;8.02;;;6.18;;
54845;SDS011;53889;50.084;8.646;2022-09-13T00:43:15;9.48;;;5.95;;
54845;SDS011;53889;50.084;8.646;2022-09-13T00:45:43;8.68;;;5.78;;
54845;SDS011;53889;50.084;8.646;2022-09-13T00:48:14;8.82;;;6.22;;
54845;SDS011;53889;50.084;8.646;2022-09-13T00:50:45;9.05;;;6.28;;
54845;SDS011;53889;50.084;8.646;2022-09-13T00:53:18;8.60;;;5.60;;
54845;SDS011;53889;50.084;8.646;2022-09-13T00:55:49;9.07;;;6.72;;
54845;SDS011;53889;50.084;8.646;2022-09-13T00:58:21;8.45;;;6.38;;
54845;SDS011;53889;50.084;8.646;2022-09-13T01:00:50;9.38;;;6.43;;
54845;SDS011;53889;50.084;8.646;2022-09-13T01:03:18;9.70;;;7.07;;
54845;SDS011;53889;50.084;8.646;2022-09-13T01:05:48;9.75;;;6.60;;
54845;SDS011;53889;50.084;8.646;2022-09-13T01:08:23;7.90;;;6.25;;
54845;SDS011;53889;50.084;8.646;2022-09-13T01:10:50;8.60;;;6.43;;
54845;SDS011;53889;50.084;8.646;2022-09-13T01:13:19;9.75;;;6.80;;
54845;SDS011;53889;50.084;8.646;2022-09-13T01:15:47;8.77;;;6.57;;
54845;SDS011;53889;50.084;8.646;2022-09-13T01:18:15;7.82;;;6.30;;
54845;SDS011;53889;50.084;8.646;2022-09-13T01:20:49;9.57;;;7.00;;
54845;SDS011;53889;50.084;8.646;2022-09-13T01:23:43;10.43;;;6.95;;
54845;SDS011;53889;50.084;8.646;2022-09-13T01:26:29;10.20;;;6.87;;
54845;SDS011;53889;50.084;8.646;2022-09-13T01:29:24;9.18;;;6.68;;
54845;SDS011;53889;50.084;8.646;2022-09-13T01:32:08;9.05;;;7.13;;
54845;SDS011;53889;50.084;8.646;2022-09-13T01:34:46;10.00;;;7.35;;
54845;SDS011;53889;50.084;8.646;2022-09-13T01:37:28;10.55;;;7.40;;
54845;SDS011;53889;50.084;8.646;2022-09-13T01:40:06;10.23;;;6.88;;
54845;SDS011;53889;50.084;8.646;2022-09-13T01:42:47;10.25;;;6.97;;
54845;SDS011;53889;50.084;8.646;2022-09-13T01:45:26;10.15;;;6.85;;
54845;SDS011;53889;50.084;8.646;2022-09-13T01:48:04;10.23;;;7.20;;
54845;SDS011;53889;50.084;8.646;2022-09-13T01:50:37;9.90;;;7.13;;
54845;SDS011;53889;50.084;8.646;2022-09-13T01:53:08;9.40;;;7.20;;
54845;SDS011;53889;50.084;8.646;2022-09-13T01:55:45;10.57;;;7.35;;
54845;SDS011;53889;50.084;8.646;2022-09-13T01:58:19;10.65;;;7.53;;
54845;SDS011;53889;50.084;8.646;2022-09-13T02:00:50;11.20;;;7.30;;
54845;SDS011;53889;50.084;8.646;2022-09-13T02:03:26;11.98;;;7.30;;
54845;SDS011;53889;50.084;8.646;2022-09-13T02:05:56;10.85;;;7.38;;
54845;SDS011;53889;50.084;8.646;2022-09-13T02:08:33;9.23;;;6.80;;
54845;SDS011;53889;50.084;8.646;2022-09-13T02:11:05;10.70;;;7.20;;
54845;SDS011;53889;50.084;8.646;2022-09-13T02:13:35;13.25;;;7.90;;
54845;SDS011;53889;50.084;8.646;2022-09-13T02:16:07;9.95;;;7.18;;
54845;SDS011;53889;50.084;8.646;2022-09-13T02:18:39;10.75;;;7.25;;
54845;SDS011;53889;50.084;8.646;2022-09-13T02:21:09;12.77;;;7.40;;
54845;SDS011;53889;50.084;8.646;2022-09-13T02:23:41;10.30;;;7.50;;
54845;SDS011;53889;50.084;8.646;2022-09-13T02:26:12;10.20;;;7.35;;
54845;SDS011;53889;50.084;8.646;2022-09-13T02:28:41;10.85;;;7.10;;
54845;SDS011;53889;50.084;8.646;2022-09-13T02:31:12;11.48;;;7.38;;
54845;SDS011;53889;50.084;8.646;2022-09-13T02:33:46;11.10;;;7.78;;
54845;SDS011;53889;50.084;8.646;2022-09-13T02:36:18;10.25;;;7.80;;
54845;SDS011;53889;50.084;8.646;2022-09-13T02:38:49;9.93;;;6.93;;
54845;SDS011;53889;50.084;8.646;2022-09-13T02:41:20;9.95;;;7.38;;
54845;SDS011;53889;50.084;8.646;2022-09-13T02:43:54;9.85;;;7.78;;
54845;SDS011;53889;50.084;8.646;2022-09-13T02:46:33;10.52;;;7.75;;
54845;SDS011;53889;50.084;8.646;2022-09-13T02:49:14;10.27;;;7.13;;
54845;SDS011;53889;50.084;8.646;2022-09-13T02:51:49;11.73;;;7.30;;
54845;SDS011;53889;50.084;8.646;2022-09-13T02:54:23;11.13;;;7.20;;
54845;SDS011;53889;50.084;8.646;2022-09-13T02:56:56;10.38;;;7.50;;
54845;SDS011;53889;50.084;8.646;2022-09-13T02:59:27;10.23;;;7.07;;
54845;SDS011;53889;50.084;8.646;2022-09-13T03:01:55;10.27;;;7.90;;
54845;SDS011;53889;50.084;8.646;2022-09-13T03:04:27;11.63;;;7.47;;
54845;SDS011;53889;50.084;8.646;2022-09-13T03:06:54;12.05;;;8.27;;
54845;SDS011;53889;50.084;8.646;2022-09-13T03:09:20;11.90;;;8.32;;
54845;SDS011;53889;50.084;8.646;2022-09-13T03:11:55;10.38;;;7.32;;
54845;SDS011;53889;50.084;8.646;2022-09-13T03:14:45;10.63;;;7.43;;
54845;SDS011;53889;50.084;8.646;2022-09-13T03:17:24;10.65;;;7.95;;
54845;SDS011;53889;50.084;8.646;2022-09-13T03:20:05;11.82;;;7.57;;
54845;SDS011;53889;50.084;8.646;2022-09-13T03:22:38;9.55;;;7.47;;
54845;SDS011;53889;50.084;8.646;2022-09-13T03:25:17;10.10;;;7.47;;
54845;SDS011;53889;50.084;8.646;2022-09-13T03:27:59;10.70;;;7.32;;
54845;SDS011;53889;50.084;8.646;2022-09-13T03:30:31;9.88;;;7.15;;
54845;SDS011;53889;50.084;8.646;2022-09-13T03:33:01;12.13;;;7.50;;
54845;SDS011;53889;50.084;8.646;2022-09-13T03:35:37;13.18;;;8.10;;
54845;SDS011;53889;50.084;8.646;2022-09-13T03:38:09;9.43;;;6.78;;
54845;SDS011;53889;50.084;8.646;2022-09-13T03:40:39;8.88;;;7.00;;
54845;SDS011;53889;50.084;8.646;2022-09-13T03:43:10;9.45;;;7.45;;
54845;SDS011;53889;50.084;8.646;2022-09-13T03:45:41;10.98;;;7.30;;
54845;SDS011;53889;50.084;8.646;2022-09-13T03:48:13;10.88;;;7.15;;
54845;SDS011;53889;50.084;8.646;2022-09-13T03:50:42;11.38;;;7.10;;
54845;SDS011;53889;50.084;8.646;2022-09-13T03:53:12;9.05;;;7.10;;
54845;SDS011;53889;50.084;8.646;2022-09-13T03:55:43;9.55;;;7.68;;
54845;SDS011;53889;50.084;8.646;2022-09-13T03:58:10;9.90;;;7.53;;
54845;SDS011;53889;50.084;8.646;2022-09-13T04:00:38;10.07;;;7.50;;
54845;SDS011;53889;50.084;8.646;2022-09-13T04:03:05;10.07;;;7.22;;
54845;SDS011;53889;50.084;8.646;2022-09-13T04:05:32;10.25;;;7.28;;
54845;SDS011;53889;50.084;8.646;2022-09-13T04:08:00;10.75;;;7.25;;
54845;SDS011;53889;50.084;8.646;2022-09-13T04:10:29;9.30;;;7.35;;
54845;SDS011;53889;50.084;8.646;2022-09-13T04:12:57;9.85;;;7.03;;
54845;SDS011;53889;50.084;8.646;2022-09-13T04:15:24;10.50;;;7.28;;
54845;SDS011;53889;50.084;8.646;2022-09-13T04:17:51;12.38;;;7.32;;
54845;SDS011;53889;50.084;8.646;2022-09-13T04:20:17;9.85;;;7.90;;
54845;SDS011;53889;50.084;8.646;2022-09-13T04:22:49;11.15;;;8.07;;
54845;SDS011;53889;50.084;8.646;2022-09-13T04:25:17;11.60;;;8.35;;
54845;SDS011;53889;50.084;8.646;2022-09-13T04:27:46;13.23;;;8.73;;
54845;SDS011;53889;50.084;8.646;2022-09-13T04:30:12;12.00;;;8.40;;
54845;SDS011;53889;50.084;8.646;2022-09-13T04:32:40;10.50;;;7.53;;
54845;SDS011;53889;50.084;8.646;2022-09-13T04:35:08;9.95;;;7.18;;
54845;SDS011;53889;50.084;8.646;2022-09-13T04:37:35;10.15;;;7.65;;
54845;SDS011;53889;50.084;8.646;2022-09-13T04:40:02;10.10;;;8.00;;
54845;SDS011;53889;50.084;8.646;2022-09-13T04:42:31;9.70;;;7.30;;
54845;SDS011;53889;50.084;8.646;2022-09-13T04:44:58;8.40;;;6.78;;
54845;SDS011;53889;50.084;8.646;2022-09-13T04:47:25;10.05;;;6.40;;
54845;SDS011;53889;50.084;8.646;2022-09-13T04:49:51;11.27;;;7.18;;
54845;SDS011;53889;50.084;8.646;2022-09-13T04:52:18;10.30;;;7.00;;
54845;SDS011;53889;50.084;8.646;2022-09-13T04:54:45;8.43;;;6.78;;
54845;SDS011;53889;50.084;8.646;2022-09-13T04:57:12;9.02;;;6.82;;
54845;SDS011;53889;50.084;8.646;2022-09-13T04:59:41;12.88;;;7.15;;
54845;SDS011;53889;50.084;8.646;2022-09-13T05:02:08;9.98;;;6.53;;
54845;SDS011;53889;50.084;8.646;2022-09-13T05:04:35;9.70;;;7.00;;
54845;SDS011;53889;50.084;8.646;2022-09-13T05:07:02;10.75;;;6.88;;
54845;SDS011;53889;50.084;8.646;2022-09-13T05:09:29;10.35;;;7.40;;
54845;SDS011;53889;50.084;8.646;2022-09-13T05:11:56;10.13;;;6.97;;
54845;SDS011;53889;50.084;8.646;2022-09-13T05:14:24;10.70;;;7.70;;
54845;SDS011;53889;50.084;8.646;2022-09-13T05:16:52;9.30;;;6.90;;
54845;SDS011;53889;50.084;8.646;2022-09-13T05:19:18;8.75;;;6.40;;
54845;SDS011;53889;50.084;8.646;2022-09-13T05:21:45;11.13;;;6.90;;
54845;SDS011;53889;50.084;8.646;2022-09-13T05:24:11;9.52;;;6.95;;
54845;SDS011;53889;50.084;8.646;2022-09-13T05:26:38;9.05;;;6.78;;
54845;SDS011;53889;50.084;8.646;2022-09-13T05:29:05;9.15;;;6.80;;
54845;SDS011;53889;50.084;8.646;2022-09-13T05:31:32;9.93;;;6.97;;
54845;SDS011;53889;50.084;8.646;2022-09-13T05:34:03;8.98;;;6.82;;
54845;SDS011;53889;50.084;8.646;2022-09-13T05:36:31;10.50;;;6.57;;
54845;SDS011;53889;50.084;8.646;2022-09-13T05:38:58;12.35;;;7.30;;
54845;SDS011;53889;50.084;8.646;2022-09-13T05:41:25;10.00;;;7.03;;
54845;SDS011;53889;50.084;8.646;2022-09-13T05:43:52;10.05;;;7.60;;
54845;SDS011;53889;50.084;8.646;2022-09-13T05:46:19;11.00;;;7.45;;
54845;SDS011;53889;50.084;8.646;2022-09-13T05:48:46;9.77;;;6.90;;
54845;SDS011;53889;50.084;8.646;2022-09-13T05:51:15;9.05;;;6.78;;
54845;SDS011;53889;50.084;8.646;2022-09-13T05:53:44;9.15;;;7.32;;
54845;SDS011;53889;50.084;8.646;2022-09-13T05:56:12;11.32;;;7.28;;
54845;SDS011;53889;50.084;8.646;2022-09-13T05:58:40;11.45;;;7.20;;
54845;SDS011;53889;50.084;8.646;2022-09-13T06:01:08;11.27;;;6.53;;
54845;SDS011;53889;50.084;8.646;2022-09-13T06:03:36;10.73;;;6.70;;
54845;SDS011;53889;50.084;8.646;2022-09-13T06:06:04;10.57;;;7.43;;
54845;SDS011;53889;50.084;8.646;2022-09-13T06:08:33;10.50;;;6.40;;
54845;SDS011;53889;50.084;8.646;2022-09-13T06:11:01;16.13;;;7.32;;
54845;SDS011;53889;50.084;8.646;2022-09-13T06:13:29;10.88;;;7.20;;
54845;SDS011;53889;50.084;8.646;2022-09-13T06:15:56;10.05;;;6.82;;
54845;SDS011;53889;50.084;8.646;2022-09-13T06:18:24;13.10;;;6.93;;
54845;SDS011;53889;50.084;8.646;2022-09-13T06:20:56;13.00;;;6.97;;
54845;SDS011;53889;50.084;8.646;2022-09-13T06:23:23;11.55;;;7.70;;
54845;SDS011;53889;50.084;8.646;2022-09-13T06:25:59;14.50;;;7.30;;
54845;SDS011;53889;50.084;8.646;2022-09-13T06:28:26;13.05;;;7.30;;
54845;SDS011;53889;50.084;8.646;2022-09-13T06:30:58;13.90;;;6.88;;
54845;SDS011;53889;50.084;8.646;2022-09-13T06:33:25;11.27;;;7.93;;
54845;SDS011;53889;50.084;8.646;2022-09-13T06:35:52;12.15;;;7.88;;
54845;SDS011;53889;50.084;8.646;2022-09-13T06:38:19;12.35;;;7.70;;
54845;SDS011;53889;50.084;8.646;2022-09-13T06:40:46;10.00;;;7.38;;
54845;SDS011;53889;50.084;8.646;2022-09-13T06:43:14;10.48;;;7.68;;
54845;SDS011;53889;50.084;8.646;2022-09-13T06:45:40;10.70;;;7.13;;
54845;SDS011;53889;50.084;8.646;2022-09-13T06:48:07;11.77;;;7.57;;
54845;SDS011;53889;50.084;8.646;2022-09-13T06:50:34;12.27;;;7.63;;
54845;SDS011;53889;50.084;8.646;2022-09-13T06:53:00;14.73;;;7.53;;
54845;SDS011;53889;50.084;8.646;2022-09-13T06:55:27;11.93;;;7.88;;
54845;SDS011;53889;50.084;8.646;2022-09-13T06:57:54;10.30;;;7.40;;
54845;SDS011;53889;50.084;8.646;2022-09-13T07:00:22;12.55;;;8.30;;
54845;SDS011;53889;50.084;8.646;2022-09-13T07:02:50;13.15;;;7.93;;
54845;SDS011;53889;50.084;8.646;2022-09-13T07:05:16;10.93;;;7.65;;
54845;SDS011;53889;50.084;8.646;2022-09-13T07:07:44;12.68;;;8.18;;
54845;SDS011;53889;50.084;8.646;2022-09-13T07:10:11;13.70;;;9.48;;
54845;SDS011;53889;50.084;8.646;2022-09-13T07:12:39;13.90;;;8.15;;
54845;SDS011;53889;50.084;8.646;2022-09-13T07:15:06;10.07;;;8.05;;
54845;SDS011;53889;50.084;8.646;2022-09-13T07:17:35;12.57;;;8.35;;
54845;SDS011;53889;50.084;8.646;2022-09-13T07:20:02;11.20;;;7.95;;
54845;SDS011;53889;50.084;8.646;2022-09-13T07:22:31;11.00;;;8.07;;
54845;SDS011;53889;50.084;8.646;2022-09-13T07:24:57;12.32;;;8.20;;
54845;SDS011;53889;50.084;8.646;2022-09-13T07:27:25;12.05;;;7.82;;
54845;SDS011;53889;50.084;8.646;2022-09-13T07:29:52;11.05;;;8.70;;
54845;SDS011;53889;50.084;8.646;2022-09-13T07:32:19;14.15;;;8.93;;
54845;SDS011;53889;50.084;8.646;2022-09-13T07:34:48;11.38;;;8.48;;
54845;SDS011;53889;50.084;8.646;2022-09-13T07:37:15;13.00;;;9.30;;
54845;SDS011;53889;50.084;8.646;2022-09-13T07:39:42;13.80;;;9.25;;
54845;SDS011;53889;50.084;8.646;2022-09-13T07:42:08;12.10;;;8.75;;
54845;SDS011;53889;50.084;8.646;2022-09-13T07:44:35;14.23;;;8.88;;
54845;SDS011;53889;50.084;8.646;2022-09-13T07:47:02;13.00;;;9.20;;
54845;SDS011;53889;50.084;8.646;2022-09-13T07:49:28;11.13;;;8.70;;
54845;SDS011;53889;50.084;8.646;2022-09-13T07:51:56;13.43;;;9.75;;
54845;SDS011;53889;50.084;8.646;2022-09-13T07:54:23;14.60;;;8.65;;
54845;SDS011;53889;50.084;8.646;2022-09-13T07:56:50;12.98;;;9.00;;
54845;SDS011;53889;50.084;8.646;2022-09-13T07:59:18;11.93;;;8.73;;
54845;SDS011;53889;50.084;8.646;2022-09-13T08:01:45;17.15;;;9.15;;
54845;SDS011;53889;50.084;8.646;2022-09-13T08:04:13;12.27;;;8.80;;
54845;SDS011;53889;50.084;8.646;2022-09-13T08:06:42;12.18;;;8.68;;
54845;SDS011;53889;50.084;8.646;2022-09-13T08:09:10;14.45;;;8.73;;
54845;SDS011;53889;50.084;8.646;2022-09-13T08:11:39;12.93;;;8.48;;
54845;SDS011;53889;50.084;8.646;2022-09-13T08:14:08;13.55;;;8.07;;
54845;SDS011;53889;50.084;8.646;2022-09-13T08:16:36;14.07;;;9.20;;
54845;SDS011;53889;50.084;8.646;2022-09-13T08:19:03;11.90;;;8.38;;
54845;SDS011;53889;50.084;8.646;2022-09-13T08:21:32;12.52;;;8.45;;
54845;SDS011;53889;50.084;8.646;2022-09-13T08:24:00;15.57;;;12.32;;
54845;SDS011;53889;50.084;8.646;2022-09-13T08:26:29;12.45;;;7.55;;
54845;SDS011;53889;50.084;8.646;2022-09-13T08:28:57;11.20;;;6.55;;
54845;SDS011;53889;50.084;8.646;2022-09-13T08:31:26;9.40;;;6.85;;
54845;SDS011;53889;50.084;8.646;2022-09-13T08:33:53;9.48;;;7.22;;
54845;SDS011;53889;50.084;8.646;2022-09-13T08:36:22;15.55;;;10.68;;
54845;SDS011;53889;50.084;8.646;2022-09-13T08:38:49;11.30;;;7.55;;
54845;SDS011;53889;50.084;8.646;2022-09-13T08:41:35;11.70;;;7.00;;
54845;SDS011;53889;50.084;8.646;2022-09-13T08:44:21;9.93;;;6.22;;
54845;SDS011;53889;50.084;8.646;2022-09-13T08:46:52;9.93;;;6.50;;
54845;SDS011;53889;50.084;8.646;2022-09-13T08:49:25;12.00;;;6.80;;
54845;SDS011;53889;50.084;8.646;2022-09-13T08:51:56;10.00;;;6.57;;
54845;SDS011;53889;50.084;8.646;2022-09-13T08:54:26;8.68;;;6.70;;
54845;SDS011;53889;50.084;8.646;2022-09-13T08:56:55;10.90;;;7.50;;
54845;SDS011;53889;50.084;8.646;2022-09-13T08:59:31;9.43;;;7.10;;
54845;SDS011;53889;50.084;8.646;2022-09-13T09:02:10;10.85;;;6.85;;
54845;SDS011;53889;50.084;8.646;2022-09-13T09:04:46;20.60;;;8.43;;
54845;SDS011;53889;50.084;8.646;2022-09-13T09:07:18;11.60;;;7.55;;
54845;SDS011;53889;50.084;8.646;2022-09-13T09:09:49;13.32;;;7.70;;
54845;SDS011;53889;50.084;8.646;2022-09-13T09:12:22;10.65;;;7.50;;
54845;SDS011;53889;50.084;8.646;2022-09-13T09:14:58;11.05;;;8.05;;
54845;SDS011;53889;50.084;8.646;2022-09-13T09:17:29;14.23;;;9.60;;
54845;SDS011;53889;50.084;8.646;2022-09-13T09:20:05;10.68;;;8.88;;
54845;SDS011;53889;50.084;8.646;2022-09-13T09:22:41;12.95;;;8.45;;
54845;SDS011;53889;50.084;8.646;2022-09-13T09:25:09;12.57;;;8.57;;
54845;SDS011;53889;50.084;8.646;2022-09-13T09:27:38;13.93;;;8.93;;
54845;SDS011;53889;50.084;8.646;2022-09-13T09:30:05;15.27;;;9.38;;
54845;SDS011;53889;50.084;8.646;2022-09-13T09:32:45;14.20;;;9.30;;
54845;SDS011;53889;50.084;8.646;2022-09-13T09:35:28;14.13;;;9.55;;
54845;SDS011;53889;50.084;8.646;2022-09-13T09:38:07;12.98;;;9.23;;
54845;SDS011;53889;50.084;8.646;2022-09-13T09:40:49;11.65;;;9.10;;
54845;SDS011;53889;50.084;8.646;2022-09-13T09:43:21;11.77;;;8.95;;
54845;SDS011;53889;50.084;8.646;2022-09-13T09:45:53;12.88;;;9.77;;
54845;SDS011;53889;50.084;8.646;2022-09-13T09:48:25;13.15;;;10.18;;
54845;SDS011;53889;50.084;8.646;2022-09-13T09:50:56;14.57;;;9.32;;
54845;SDS011;53889;50.084;8.646;2022-09-13T09:53:24;14.82;;;10.25;;
54845;SDS011;53889;50.084;8.646;2022-09-13T09:55:56;13.40;;;9.68;;
54845;SDS011;53889;50.084;8.646;2022-09-13T09:58:36;15.77;;;11.27;;
54845;SDS011;53889;50.084;8.646;2022-09-13T10:01:04;14.10;;;9.57;;
54845;SDS011;53889;50.084;8.646;2022-09-13T10:03:41;16.15;;;9.82;;
54845;SDS011;53889;50.084;8.646;2022-09-13T10:06:18;13.47;;;9.83;;
54845;SDS011;53889;50.084;8.646;2022-09-13T10:08:46;17.23;;;9.63;;
54845;SDS011;53889;50.084;8.646;2022-09-13T10:11:43;16.05;;;10.02;;
54845;SDS011;53889;50.084;8.646;2022-09-13T10:14:27;12.95;;;9.27;;
54845;SDS011;53889;50.084;8.646;2022-09-13T10:17:04;16.90;;;10.68;;
54845;SDS011;53889;50.084;8.646;2022-09-13T10:19:39;15.98;;;10.30;;
54845;SDS011;53889;50.084;8.646;2022-09-13T10:22:09;14.20;;;10.48;;
54845;SDS011;53889;50.084;8.646;2022-09-13T10:24:37;14.05;;;10.43;;
54845;SDS011;53889;50.084;8.646;2022-09-13T10:27:05;13.77;;;9.82;;
54845;SDS011;53889;50.084;8.646;2022-09-13T10:29:48;14.77;;;10.68;;
54845;SDS011;53889;50.084;8.646;2022-09-13T10:32:19;14.63;;;10.65;;
54845;SDS011;53889;50.084;8.646;2022-09-13T10:34:46;14.88;;;11.10;;
54845;SDS011;53889;50.084;8.646;2022-09-13T10:37:16;13.60;;;10.23;;
54845;SDS011;53889;50.084;8.646;2022-09-13T10:39:51;14.70;;;10.15;;
54845;SDS011;53889;50.084;8.646;2022-09-13T10:42:21;13.23;;;9.48;;
54845;SDS011;53889;50.084;8.646;2022-09-13T10:44:52;13.65;;;10.57;;
54845;SDS011;53889;50.084;8.646;2022-09-13T10:47:22;13.85;;;10.02;;
54845;SDS011;53889;50.084;8.646;2022-09-13T10:49:52;16.42;;;11.00;;
54845;SDS011;53889;50.084;8.646;2022-09-13T10:52:24;20.48;;;11.00;;
54845;SDS011;53889;50.084;8.646;2022-09-13T10:54:52;16.55;;;10.77;;
54845;SDS011;53889;50.084;8.646;2022-09-13T10:57:30;17.08;;;10.25;;
54845;SDS011;53889;50.084;8.646;2022-09-13T11:00:01;16.05;;;10.02;;
54845;SDS011;53889;50.084;8.646;2022-09-13T11:02:43;13.50;;;9.55;;
54845;SDS011;53889;50.084;8.646;2022-09-13T11:05:25;14.23;;;10.00;;
54845;SDS011;53889;50.084;8.646;2022-09-13T11:08:05;14.82;;;10.50;;
54845;SDS011;53889;50.084;8.646;2022-09-13T11:10:49;12.50;;;9.60;;
54845;SDS011;53889;50.084;8.646;2022-09-13T11:13:27;16.10;;;11.00;;
54845;SDS011;53889;50.084;8.646;2022-09-13T11:16:04;15.13;;;9.95;;
54845;SDS011;53889;50.084;8.646;2022-09-13T11:18:47;12.70;;;9.77;;
54845;SDS011;53889;50.084;8.646;2022-09-13T11:21:28;14.50;;;10.18;;
54845;SDS011;53889;50.084;8.646;2022-09-13T11:24:12;13.50;;;9.77;;
54845;SDS011;53889;50.084;8.646;2022-09-13T11:26:55;15.10;;;9.98;;
54845;SDS011;53889;50.084;8.646;2022-09-13T11:32:25;16.80;;;10.45;;
54845;SDS011;53889;50.084;8.646;2022-09-13T11:35:06;14.90;;;11.40;;
54845;SDS011;53889;50.084;8.646;2022-09-13T11:37:44;14.27;;;10.45;;
54845;SDS011;53889;50.084;8.646;2022-09-13T11:40:38;17.13;;;11.25;;
54845;SDS011;53889;50.084;8.646;2022-09-13T11:43:21;14.52;;;10.55;;
54845;SDS011;53889;50.084;8.646;2022-09-13T11:46:03;15.25;;;10.93;;
54845;SDS011;53889;50.084;8.646;2022-09-13T11:48:50;13.48;;;9.95;;
54845;SDS011;53889;50.084;8.646;2022-09-13T11:51:42;12.02;;;9.40;;
54845;SDS011;53889;50.084;8.646;2022-09-13T11:54:19;12.15;;;9.30;;
54845;SDS011;53889;50.084;8.646;2022-09-13T11:56:54;16.33;;;10.35;;
54845;SDS011;53889;50.084;8.646;2022-09-13T11:59:27;13.35;;;9.10;;
54845;SDS011;53889;50.084;8.646;2022-09-13T12:02:02;13.88;;;9.15;;
54845;SDS011;53889;50.084;8.646;2022-09-13T12:07:10;14.70;;;9.27;;
54845;SDS011;53889;50.084;8.646;2022-09-13T12:09:51;12.95;;;8.60;;
54845;SDS011;53889;50.084;8.646;2022-09-13T12:12:22;10.98;;;8.20;;
54845;SDS011;53889;50.084;8.646;2022-09-13T12:14:56;12.82;;;8.18;;
54845;SDS011;53889;50.084;8.646;2022-09-13T12:17:27;25.92;;;8.60;;
54845;SDS011;53889;50.084;8.646;2022-09-13T12:20:01;11.65;;;8.50;;
54845;SDS011;53889;50.084;8.646;2022-09-13T12:22:32;11.18;;;7.97;;
54845;SDS011;53889;50.084;8.646;2022-09-13T12:25:01;10.95;;;7.40;;
54845;SDS011;53889;50.084;8.646;2022-09-13T12:27:35;8.80;;;6.50;;
54845;SDS011;53889;50.084;8.646;2022-09-13T12:30:06;11.77;;;7.28;;
54845;SDS011;53889;50.084;8.646;2022-09-13T12:32:40;10.30;;;7.05;;
54845;SDS011;53889;50.084;8.646;2022-09-13T12:35:13;10.40;;;6.82;;
54845;SDS011;53889;50.084;8.646;2022-09-13T12:40:57;9.10;;;6.28;;
54845;SDS011;53889;50.084;8.646;2022-09-13T12:43:49;8.73;;;6.05;;
54845;SDS011;53889;50.084;8.646;2022-09-13T12:46:38;8.50;;;6.20;;
54845;SDS011;53889;50.084;8.646;2022-09-13T12:49:30;8.07;;;6.40;;
54845;SDS011;53889;50.084;8.646;2022-09-13T12:52:21;9.30;;;6.60;;
54845;SDS011;53889;50.084;8.646;2022-09-13T12:58:09;8.90;;;6.28;;
54845;SDS011;53889;50.084;8.646;2022-09-13T13:00:59;10.25;;;5.95;;
54845;SDS011;53889;50.084;8.646;2022-09-13T13:03:32;9.48;;;6.50;;
54845;SDS011;53889;50.084;8.646;2022-09-13T13:06:08;10.20;;;6.95;;
54845;SDS011;53889;50.084;8.646;2022-09-13T13:08:52;11.57;;;6.90;;
54845;SDS011;53889;50.084;8.646;2022-09-13T13:11:22;8.13;;;6.65;;
54845;SDS011;53889;50.084;8.646;2022-09-13T13:13:52;9.85;;;7.30;;
54845;SDS011;53889;50.084;8.646;2022-09-13T13:16:24;9.82;;;7.53;;
54845;SDS011;53889;50.084;8.646;2022-09-13T13:18:54;9.60;;;7.07;;
54845;SDS011;53889;50.084;8.646;2022-09-13T13:21:31;11.23;;;6.82;;
54845;SDS011;53889;50.084;8.646;2022-09-13T13:33:14;9.32;;;7.45;;
54845;SDS011;53889;50.084;8.646;2022-09-13T13:35:42;9.88;;;7.55;;
54845;SDS011;53889;50.084;8.646;2022-09-13T13:38:13;9.02;;;7.15;;
54845;SDS011;53889;50.084;8.646;2022-09-13T13:40:42;9.32;;;6.72;;
54845;SDS011;53889;50.084;8.646;2022-09-13T13:45:59;9.38;;;6.45;;
54845;SDS011;53889;50.084;8.646;2022-09-13T13:48:49;8.57;;;6.60;;
54845;SDS011;53889;50.084;8.646;2022-09-13T13:51:20;7.45;;;6.35;;
54845;SDS011;53889;50.084;8.646;2022-09-13T13:53:50;9.93;;;6.13;;
54845;SDS011;53889;50.084;8.646;2022-09-13T13:59:15;8.02;;;5.63;;
54845;SDS011;53889;50.084;8.646;2022-09-13T14:01:48;8.13;;;5.78;;
54845;SDS011;53889;50.084;8.646;2022-09-13T14:04:36;9.15;;;6.07;;
54845;SDS011;53889;50.084;8.646;2022-09-13T14:07:36;7.93;;;5.95;;
54845;SDS011;53889;50.084;8.646;2022-09-13T14:10:18;9.80;;;6.32;;
54845;SDS011;53889;50.084;8.646;2022-09-13T14:12:58;9.07;;;6.50;;
54845;SDS011;53889;50.084;8.646;2022-09-13T14:15:43;11.77;;;8.82;;
54845;SDS011;53889;50.084;8.646;2022-09-13T14:18:28;9.82;;;6.28;;
54845;SDS011;53889;50.084;8.646;2022-09-13T14:21:17;9.00;;;5.22;;
54845;SDS011;53889;50.084;8.646;2022-09-13T14:23:49;8.02;;;5.75;;
54845;SDS011;53889;50.084;8.646;2022-09-13T14:26:17;8.18;;;5.60;;
54845;SDS011;53889;50.084;8.646;2022-09-13T14:28:45;8.40;;;5.80;;
54845;SDS011;53889;50.084;8.646;2022-09-13T14:31:15;8.93;;;6.03;;
54845;SDS011;53889;50.084;8.646;2022-09-13T14:33:44;8.45;;;5.75;;
54845;SDS011;53889;50.084;8.646;2022-09-13T14:36:16;11.68;;;6.13;;
54845;SDS011;53889;50.084;8.646;2022-09-13T14:38:48;10.90;;;6.15;;
54845;SDS011;53889;50.084;8.646;2022-09-13T14:41:17;11.73;;;6.03;;
54845;SDS011;53889;50.084;8.646;2022-09-13T14:43:46;13.48;;;6.20;;
54845;SDS011;53889;50.084;8.646;2022-09-13T14:46:15;8.77;;;5.65;;
54845;SDS011;53889;50.084;8.646;2022-09-13T14:48:46;13.75;;;11.52;;
54845;SDS011;53889;50.084;8.646;2022-09-13T14:51:17;9.45;;;6.05;;
54845;SDS011;53889;50.084;8.646;2022-09-13T14:53:49;8.50;;;5.82;;
54845;SDS011;53889;50.084;8.646;2022-09-13T14:56:19;10.98;;;5.90;;
54845;SDS011;53889;50.084;8.646;2022-09-13T14:58:57;9.60;;;5.47;;
54845;SDS011;53889;50.084;8.646;2022-09-13T15:01:26;10.45;;;5.57;;
54845;SDS011;53889;50.084;8.646;2022-09-13T15:03:55;8.95;;;5.90;;
54845;SDS011;53889;50.084;8.646;2022-09-13T15:06:24;10.85;;;6.10;;
54845;SDS011;53889;50.084;8.646;2022-09-13T15:08:54;9.25;;;5.45;;
54845;SDS011;53889;50.084;8.646;2022-09-13T15:11:27;9.77;;;5.47;;
54845;SDS011;53889;50.084;8.646;2022-09-13T15:14:01;10.35;;;5.78;;
54845;SDS011;53889;50.084;8.646;2022-09-13T15:16:47;8.27;;;5.30;;
54845;SDS011;53889;50.084;8.646;2022-09-13T15:19:15;10.43;;;5.50;;
54845;SDS011;53889;50.084;8.646;2022-09-13T15:21:51;11.52;;;6.00;;
54845;SDS011;53889;50.084;8.646;2022-09-13T15:24:20;8.30;;;5.28;;
54845;SDS011;53889;50.084;8.646;2022-09-13T15:26:59;8.13;;;5.30;;
54845;SDS011;53889;50.084;8.646;2022-09-13T15:29:28;8.45;;;5.20;;
54845;SDS011;53889;50.084;8.646;2022-09-13T15:31:58;6.47;;;4.97;;
54845;SDS011;53889;50.084;8.646;2022-09-13T15:34:26;8.32;;;5.80;;